Time;durP1;ratioP1;P1;durP2;ratioP2;P2;SDS_P1;SDS_P2;PMS_P1;PMS_P2;Temp;Humidity;BMP_temperature;BMP_pressure;BME280_temperature;BME280_humidity;BME280_pressure;Samples;Min_cycle;Max_cycle;Signal;HPM_P1;HPM_P2
2022/12/27 00:02:02;;;;;;;;;69.80;58.20;;;;;25.66;44.37;95939.34;5005564;28;10488;-73
2022/12/27 00:04:29;;;;;;;;;71.00;57.00;;;;;25.51;42.80;95927.91;5003652;28;8840;-73
2022/12/27 00:06:56;;;;;;;;;78.00;63.75;;;;;25.36;44.98;95927.56;5002298;28;10739;-72
2022/12/27 00:09:23;;;;;;;;;77.00;63.25;;;;;25.35;42.32;95934.38;5003708;28;9690;-73
2022/12/27 00:11:50;;;;;;;;;75.50;62.25;;;;;25.60;43.80;95925.19;5005061;28;8840;-73
2022/12/27 00:14:25;;;;;;;;;76.75;63.00;;;;;25.67;42.05;95927.72;5003330;28;9795;-72
2022/12/27 00:16:52;;;;;;;;;75.50;61.75;;;;;25.55;42.19;95925.75;5007511;28;8828;-72
2022/12/27 00:19:19;;;;;;;;;71.60;58.20;;;;;25.45;42.61;95924.91;5004631;28;8821;-72
2022/12/27 00:21:46;;;;;;;;;77.75;63.75;;;;;25.55;43.42;95922.97;5003337;28;10201;-73
2022/12/27 00:24:14;;;;;;;;;75.00;62.25;;;;;25.76;42.66;95923.44;5003267;28;8848;-72
2022/12/27 00:26:41;;;;;;;;;69.40;57.00;;;;;25.76;42.82;95927.00;5003834;28;8836;-73
2022/12/27 00:29:09;;;;;;;;;76.00;62.25;;;;;25.64;42.01;95919.47;5005016;28;10156;-73
2022/12/27 00:31:36;;;;;;;;;66.20;56.00;;;;;25.55;40.84;95923.75;5006841;28;8896;-73
2022/12/27 00:34:06;;;;;;;;;72.25;60.75;;;;;25.56;42.50;95921.72;5005096;28;10544;-72
2022/12/27 00:36:33;;;;;;;;;68.00;56.40;;;;;25.83;41.68;95925.97;5002351;28;10664;-72
2022/12/27 00:39:01;;;;;;;;;67.80;56.40;;;;;25.82;40.31;95918.84;5004700;28;9761;-73
2022/12/27 00:41:28;;;;;;;;;68.20;56.40;;;;;25.63;40.30;95921.50;5003372;28;8910;-72
2022/12/27 00:43:55;;;;;;;;;70.00;57.20;;;;;25.66;40.89;95917.03;5006557;28;8844;-73
2022/12/27 00:46:22;;;;;;;;;75.00;61.00;;;;;25.62;41.69;95916.34;5005157;28;11246;-73
2022/12/27 00:48:48;;;;;;;;;73.75;61.00;;;;;25.74;39.90;95909.16;5003130;28;10396;-73
2022/12/27 00:51:20;;;;;;;;;74.25;61.25;;;;;25.77;40.98;95917.41;4989067;28;10113;-73
2022/12/27 00:53:49;;;;;;;;;76.50;62.50;;;;;25.74;40.32;95912.75;5004709;28;9583;-75
2022/12/27 00:56:21;;;;;;;;;67.60;56.20;;;;;25.66;40.40;95917.03;5003431;28;10004;-74
2022/12/27 00:58:56;;;;;;;;;73.50;61.00;;;;;25.70;40.38;95914.88;5005503;28;8875;-74
2022/12/27 01:01:26;;;;;;;;;68.40;57.40;;;;;25.92;40.22;95912.09;5004319;28;10045;-75
2022/12/27 01:03:53;;;;;;;;;66.00;56.00;;;;;25.99;39.23;95913.84;5001295;28;10235;-74
2022/12/27 01:06:22;;;;;;;;;73.50;60.75;;;;;25.87;39.97;95919.03;5004448;28;10063;-74
2022/12/27 01:08:49;;;;;;;;;72.50;59.75;;;;;25.76;39.60;95913.03;5003483;28;8864;-74
2022/12/27 01:11:17;;;;;;;;;67.40;57.20;;;;;25.85;40.96;95918.69;4986188;28;9515;-74
2022/12/27 01:13:45;;;;;;;;;74.00;60.75;;;;;26.01;39.04;95911.38;5004534;28;8859;-74
2022/12/27 01:16:18;;;;;;;;;73.50;61.25;;;;;25.98;40.39;95920.66;5000940;28;10807;-74
2022/12/27 01:18:46;;;;;;;;;73.00;60.75;;;;;25.85;38.74;95917.94;5001417;28;9546;-73
2022/12/27 01:21:15;;;;;;;;;72.25;61.00;;;;;25.85;39.30;95915.91;5003096;28;10999;-75
2022/12/27 01:23:42;;;;;;;;;71.75;60.00;;;;;25.86;40.54;95923.06;5002183;28;9382;-74
2022/12/27 01:26:12;;;;;;;;;71.75;59.25;;;;;26.01;39.01;95914.94;5003123;28;9512;-75
2022/12/27 01:28:39;;;;;;;;;66.40;55.80;;;;;26.03;37.97;95925.66;5005449;28;9138;-74
2022/12/27 01:31:15;;;;;;;;;64.80;54.80;;;;;25.86;38.66;95925.09;5003054;28;9027;-75
2022/12/27 01:33:43;;;;;;;;;74.75;61.00;;;;;25.78;39.04;95921.75;4998453;28;9402;-74
2022/12/27 01:36:11;;;;;;;;;67.00;55.00;;;;;25.89;38.92;95928.97;5000137;28;10298;-74
2022/12/27 01:38:41;;;;;;;;;72.75;60.75;;;;;26.06;39.15;95926.78;5002641;28;9234;-74
2022/12/27 01:44:38;;;;;;;;;70.00;58.60;;;;;26.02;38.58;95929.69;5004141;28;9584;-74
2022/12/27 01:47:11;;;;;;;;;65.20;55.20;;;;;25.96;38.66;95923.91;5004372;28;8869;-75
2022/12/27 01:49:50;;;;;;;;;71.25;59.50;;;;;26.03;38.09;95934.03;5004607;28;8913;-74
2022/12/27 01:52:17;;;;;;;;;70.75;58.75;;;;;26.18;38.05;95926.72;5001981;28;10601;-74
2022/12/27 01:54:45;;;;;;;;;70.75;59.00;;;;;26.14;38.72;95939.28;4988126;28;8840;-74
2022/12/27 01:57:12;;;;;;;;;64.00;54.00;;;;;26.03;37.59;95939.63;5003901;28;10471;-75
2022/12/27 01:59:40;;;;;;;;;70.50;59.25;;;;;26.07;37.75;95937.50;5003304;28;10041;-74
2022/12/27 02:02:07;;;;;;;;;66.40;55.00;;;;;26.15;38.35;95944.41;5005169;28;10942;-74
2022/12/27 02:04:34;;;;;;;;;65.80;54.20;;;;;26.31;37.85;95946.22;5004559;28;8955;-74
2022/12/27 02:07:01;;;;;;;;;71.00;59.20;;;;;26.19;37.86;95952.66;5003764;28;10269;-74
2022/12/27 02:09:41;;;;;;;;;71.00;59.25;;;;;26.08;37.05;95943.84;5003453;28;10520;-74
2022/12/27 02:12:09;;;;;;;;;74.25;60.75;;;;;26.07;37.33;95950.66;5002437;28;8851;-74
2022/12/27 02:14:45;;;;;;;;;71.00;58.75;;;;;26.22;37.78;95937.78;5001483;28;9290;-74
2022/12/27 02:17:25;;;;;;;;;71.00;58.75;;;;;26.23;37.36;95950.50;4990847;28;10639;-75
2022/12/27 02:20:14;;;;;;;;;71.00;59.25;;;;;26.24;37.22;95951.28;5005182;28;8911;-75
2022/12/27 02:25:54;;;;;;;;;71.50;60.00;;;;;26.10;36.81;95947.78;5004531;28;8859;-75
2022/12/27 02:28:52;;;;;;;;;65.20;55.00;;;;;26.20;37.49;95957.00;5001510;28;9608;-74
2022/12/27 02:31:39;;;;;;;;;63.60;54.20;;;;;26.20;37.20;95961.81;5002101;28;9629;-74
2022/12/27 02:34:24;;;;;;;;;64.20;54.60;;;;;26.17;36.49;95960.72;5002823;28;10678;-75
2022/12/27 02:36:55;;;;;;;;;65.00;55.00;;;;;26.13;37.16;95965.66;5002952;28;8840;-75
2022/12/27 02:39:25;;;;;;;;;67.00;55.80;;;;;26.33;36.94;95968.88;5002792;28;8848;-75
2022/12/27 02:53:11;;;;;;;;;64.00;54.00;;;;;26.39;36.34;95985.84;4909667;29;8897;-75
2022/12/27 02:59:09;;;;;;;;;64.00;54.00;;;;;26.22;36.22;95987.28;4902172;29;9358;-75
2022/12/27 03:05:09;;;;;;;;;69.20;58.00;;;;;26.36;36.23;95988.78;4834555;29;10137;-74
2022/12/27 03:08:00;;;;;;;;;63.60;53.80;;;;;26.39;37.22;95980.25;4830791;29;8856;-74
2022/12/27 03:16:36;;;;;;;;;68.80;57.20;;;;;26.43;37.39;95988.50;4831930;29;11029;-75
2022/12/27 03:19:11;;;;;;;;;63.60;53.20;;;;;26.36;36.48;95986.75;4832295;29;10395;-75
2022/12/27 03:27:31;;;;;;;;;64.00;54.00;;;;;26.29;36.56;95981.44;4869153;29;10966;-76
2022/12/27 03:33:14;;;;;;;;;63.40;54.00;;;;;26.50;36.12;95982.66;4908108;29;9789;-74
2022/12/27 03:38:56;;;;;;;;;65.40;55.40;;;;;26.37;35.60;95976.38;4953305;28;10230;-73
2022/12/27 03:44:24;;;;;;;;;65.20;55.20;;;;;26.55;35.99;95979.28;5006583;28;8856;-74
2022/12/27 03:47:27;;;;;;;;;68.80;57.60;;;;;26.55;36.03;95976.47;5003710;28;8864;-74
2022/12/27 03:50:18;;;;;;;;;69.00;57.20;;;;;26.37;35.73;95970.78;5005529;28;8832;-74
2022/12/27 03:53:09;;;;;;;;;68.00;56.20;;;;;26.43;36.42;95968.94;5005395;28;9856;-74
2022/12/27 03:55:36;;;;;;;;;69.20;58.20;;;;;26.52;36.42;95969.00;5007068;28;8842;-74
2022/12/27 03:58:04;;;;;;;;;64.60;54.00;;;;;26.57;35.90;95962.78;5006486;28;9438;-75
2022/12/27 04:00:31;;;;;;;;;63.20;53.20;;;;;26.47;35.67;95964.78;5004676;28;9622;-75
2022/12/27 04:02:57;;;;;;;;;70.60;59.00;;;;;26.40;35.79;95964.28;5004540;28;8870;-75
2022/12/27 04:05:24;;;;;;;;;65.20;55.20;;;;;26.44;35.41;95959.31;5006402;28;10486;-75
2022/12/27 04:35:27;;;;;;;;;66.00;55.20;;;;;26.61;35.77;95968.28;5003649;28;10658;-75
2022/12/27 04:37:54;;;;;;;;;70.00;59.00;;;;;26.60;35.58;95966.72;5004117;28;8851;-76
2022/12/27 04:57:05;;;;;;;;;70.00;58.40;;;;;26.57;35.34;95965.59;5007985;28;8945;-75
2022/12/27 05:02:18;;;;;;;;;70.80;59.00;;;;;26.65;34.16;95966.91;5007242;28;9494;-76
2022/12/27 05:04:47;;;;;;;;;64.40;54.60;;;;;26.56;35.50;95966.84;5006984;28;8814;-75
2022/12/27 05:15:34;;;;;;;;;70.00;58.80;;;;;26.59;34.51;95979.91;5003181;28;10140;-75
2022/12/27 05:18:00;;;;;;;;;70.00;59.00;;;;;26.61;35.45;95985.06;5004596;28;9228;-75
2022/12/27 05:20:27;;;;;;;;;69.60;57.00;;;;;26.60;34.28;95981.47;5005402;28;10191;-75
2022/12/27 05:25:41;;;;;;;;;69.00;58.00;;;;;26.71;35.18;95971.88;5003542;28;10381;-75
2022/12/27 05:28:10;;;;;;;;;63.40;53.40;;;;;26.56;34.58;95980.03;5004726;28;8896;-75
2022/12/27 05:30:40;;;;;;;;;71.00;59.00;;;;;26.53;35.11;95978.19;5005054;28;8874;-75
2022/12/27 05:33:07;;;;;;;;;70.00;57.40;;;;;26.60;34.33;95972.31;5005695;28;8847;-75
2022/12/27 05:35:34;;;;;;;;;64.80;54.00;;;;;26.66;35.49;95967.66;5005099;28;8840;-75
2022/12/27 05:38:01;;;;;;;;;69.20;57.60;;;;;26.65;34.69;95966.91;5006495;28;8851;-75
2022/12/27 05:40:28;;;;;;;;;65.00;54.20;;;;;26.58;34.22;95966.38;5004528;28;8856;-76
2022/12/27 05:42:58;;;;;;;;;64.80;54.20;;;;;26.49;34.36;95970.69;5003197;28;9197;-75
2022/12/27 05:45:25;;;;;;;;;70.20;59.00;;;;;26.68;34.56;95970.00;5005838;28;8845;-75
2022/12/27 05:47:52;;;;;;;;;70.60;59.00;;;;;26.76;35.36;95965.69;5004809;28;10367;-75
2022/12/27 05:50:19;;;;;;;;;70.00;59.00;;;;;26.70;34.16;95973.13;5004829;28;10687;-76
2022/12/27 05:52:49;;;;;;;;;65.00;55.00;;;;;26.59;34.63;95981.94;5006712;28;8906;-76
2022/12/27 05:55:16;;;;;;;;;68.80;57.20;;;;;26.62;34.44;95986.59;5004527;28;8914;-76
2022/12/27 05:57:43;;;;;;;;;70.20;58.40;;;;;26.66;35.25;95981.66;5006029;28;9182;-76
2022/12/27 06:00:10;;;;;;;;;64.00;53.20;;;;;26.70;33.98;95990.66;5003527;28;8879;-76
2022/12/27 06:02:41;;;;;;;;;64.00;53.80;;;;;26.71;34.14;95988.66;5004817;28;10638;-76
2022/12/27 06:05:09;;;;;;;;;70.00;58.60;;;;;26.61;34.53;95996.25;5006271;28;8816;-76
2022/12/27 06:07:37;;;;;;;;;64.00;54.00;;;;;26.70;34.42;95990.66;5006799;28;9629;-76
2022/12/27 06:10:08;;;;;;;;;63.60;53.20;;;;;26.77;34.39;95998.84;5005614;28;8861;-76
2022/12/27 06:12:35;;;;;;;;;69.60;58.00;;;;;26.79;33.95;95998.38;5003840;28;9006;-76
2022/12/27 06:15:03;;;;;;;;;64.20;53.20;;;;;26.64;34.02;96004.50;5004162;28;10522;-76
2022/12/27 06:17:30;;;;;;;;;65.80;55.40;;;;;26.61;34.05;96008.19;5004765;28;8903;-76
2022/12/27 06:19:57;;;;;;;;;70.00;59.00;;;;;26.62;34.54;96006.16;5005301;28;8832;-75
2022/12/27 06:22:24;;;;;;;;;65.20;54.00;;;;;26.90;34.14;96011.94;5004131;28;10693;-76
2022/12/27 06:24:51;;;;;;;;;62.80;53.20;;;;;26.81;33.58;96009.88;5007710;28;8852;-76
2022/12/27 06:27:18;;;;;;;;;68.60;57.00;;;;;26.68;33.90;96018.34;5010250;28;10411;-76
2022/12/27 06:29:45;;;;;;;;;68.00;57.00;;;;;26.59;33.82;96013.47;5009058;28;10437;-76
2022/12/27 06:32:12;;;;;;;;;68.00;57.00;;;;;26.68;34.18;96009.94;5010531;28;8877;-75
2022/12/27 06:34:39;;;;;;;;;64.20;53.80;;;;;26.82;33.63;96016.25;5007905;28;9250;-76
2022/12/27 06:37:05;;;;;;;;;63.00;53.00;;;;;26.77;34.01;96015.63;5006297;28;9656;-76
2022/12/27 06:39:32;;;;;;;;;67.00;56.00;;;;;26.76;33.24;96019.66;4991193;28;9085;-76
2022/12/27 06:41:59;;;;;;;;;69.80;57.60;;;;;26.67;33.40;96022.38;5008267;28;8902;-75
2022/12/27 06:44:26;;;;;;;;;64.60;53.80;;;;;25.77;33.83;96022.75;5007015;28;8844;-70
2022/12/27 06:46:53;;;;;;;;;62.80;53.00;;;;;26.37;34.80;96024.66;5007867;28;8871;-73
2022/12/27 06:49:19;;;;;;;;;70.25;59.00;;;;;25.43;34.21;96033.44;5008191;28;8881;-67
2022/12/27 06:51:47;;;;;;;;;65.20;54.40;;;;;24.30;37.41;96030.41;5008623;28;9015;-67
2022/12/27 06:54:21;;;;;;;;;65.20;55.00;;;;;24.99;37.19;96031.19;5005162;28;8850;-67
2022/12/27 06:56:48;;;;;;;;;64.00;54.20;;;;;25.29;38.42;96031.88;5008964;28;8850;-66
2022/12/27 06:59:15;;;;;;;;;63.80;54.60;;;;;25.44;37.98;96035.00;5010052;28;8882;-67
2022/12/27 07:01:42;;;;;;;;;69.00;57.50;;;;;25.48;37.84;96032.09;5006376;28;8921;-68
2022/12/27 07:04:09;;;;;;;;;71.00;58.50;;;;;25.50;38.32;96035.22;5008604;28;8864;-67
2022/12/27 07:06:36;;;;;;;;;65.20;55.00;;;;;25.50;38.31;96038.00;5006681;28;8852;-68
2022/12/27 07:09:03;;;;;;;;;71.00;58.50;;;;;25.48;37.82;96040.47;5007857;28;8884;-68
2022/12/27 07:11:35;;;;;;;;;67.00;56.80;;;;;25.46;37.91;96040.16;5007400;28;8875;-67
2022/12/27 07:14:02;;;;;;;;;68.75;57.00;;;;;25.42;38.21;96040.25;5008966;28;8836;-67
2022/12/27 07:16:29;;;;;;;;;70.75;58.25;;;;;25.38;38.35;96043.13;5006212;28;8880;-67
2022/12/27 07:18:58;;;;;;;;;69.75;58.25;;;;;25.36;38.28;96044.81;5007615;28;8895;-67
2022/12/27 07:21:27;;;;;;;;;66.00;56.00;;;;;25.32;37.89;96044.91;5003637;28;9110;-68
2022/12/27 07:23:54;;;;;;;;;65.00;55.00;;;;;25.29;38.41;96039.44;5006548;28;8911;-67
2022/12/27 07:26:28;;;;;;;;;71.00;59.50;;;;;25.25;38.28;96045.16;5009151;28;8966;-67
2022/12/27 07:28:58;;;;;;;;;70.00;59.00;;;;;25.19;37.38;96046.94;5008241;28;8850;-72
2022/12/27 07:31:28;;;;;;;;;71.25;59.50;;;;;24.91;37.26;96055.72;5006323;28;8866;-71
2022/12/27 07:33:57;;;;;;;;;72.75;60.50;;;;;23.76;39.77;96070.78;5006029;28;8950;-82
2022/12/27 07:36:27;;;;;;;;;66.40;56.00;;;;;23.77;39.85;96066.78;5004259;28;8852;-68
2022/12/27 07:38:54;;;;;;;;;71.00;59.25;;;;;23.15;41.41;96066.66;5006910;28;9242;-71
2022/12/27 07:41:23;;;;;;;;;73.75;60.75;;;;;22.62;42.19;96067.38;5007886;28;8996;-71
2022/12/27 07:43:52;;;;;;;;;72.40;61.20;;;;;22.37;42.56;96071.44;5006139;28;8846;-71
2022/12/27 07:46:22;;;;;;;;;69.20;56.60;;;;;22.36;46.14;96075.41;5006743;28;9156;-71
2022/12/27 07:48:51;;;;;;;;;65.80;55.20;;;;;22.35;46.70;96073.06;5007989;28;9104;-70
2022/12/27 07:51:18;;;;;;;;;67.80;57.00;;;;;22.24;41.76;96073.28;5005315;28;8895;-70
2022/12/27 07:53:48;;;;;;;;;74.75;62.00;;;;;20.94;32.71;96078.13;5005801;28;8894;-70
2022/12/27 07:56:23;;;;;;;;;70.80;58.20;;;;;19.95;31.99;96080.44;5001363;28;8851;-70
2022/12/27 07:58:54;;;;;;;;;76.25;63.25;;;;;19.59;31.83;96089.03;5000952;28;10177;-69
2022/12/27 08:01:23;;;;;;;;;70.20;59.80;;;;;18.64;33.28;96077.78;5003736;28;8853;-69
2022/12/27 08:03:50;;;;;;;;;74.67;62.33;;;;;17.96;34.47;96083.50;4994758;28;8871;-70
2022/12/27 08:06:30;;;;;;;;;74.00;60.00;;;;;17.58;35.34;96078.41;4999656;28;9122;-70
2022/12/27 08:08:59;;;;;;;;;81.50;67.00;;;;;17.15;35.80;96068.19;4999744;28;8861;-69
2022/12/27 08:11:26;;;;;;;;;71.75;60.00;;;;;16.87;36.77;96077.16;5000597;28;10043;-69
2022/12/27 08:13:53;;;;;;;;;78.50;64.50;;;;;16.59;36.80;96073.91;5000597;28;8845;-69
2022/12/27 08:16:23;;;;;;;;;79.25;64.00;;;;;16.51;37.16;96069.56;5004607;28;10082;-69
2022/12/27 08:18:50;;;;;;;;;82.00;68.25;;;;;16.17;37.73;96075.31;5000025;28;10220;-68
2022/12/27 08:21:16;;;;;;;;;82.25;67.25;;;;;15.91;38.55;96079.09;5000014;28;10435;-68
2022/12/27 08:23:44;;;;;;;;;93.00;76.00;;;;;15.70;38.85;96075.00;5001247;28;10629;-68
2022/12/27 08:26:10;;;;;;;;;84.50;69.50;;;;;15.53;39.46;96085.50;5002626;28;11572;-69
2022/12/27 08:28:37;;;;;;;;;81.25;67.25;;;;;15.87;39.94;96081.06;4999822;28;11541;-75
2022/12/27 08:31:06;;;;;;;;;82.50;68.25;;;;;17.16;39.29;96085.47;5001987;28;10901;-63
2022/12/27 08:33:34;;;;;;;;;83.00;68.25;;;;;17.73;39.09;96084.72;4998836;28;11220;-68
2022/12/27 08:36:06;;;;;;;;;80.50;67.00;;;;;18.19;38.83;96081.13;5001057;28;11169;-70
2022/12/27 08:38:53;;;;;;;;;82.50;67.75;;;;;18.65;49.91;96084.88;5000152;28;11317;-65
2022/12/27 08:41:21;;;;;;;;;84.25;70.00;;;;;19.15;49.48;96089.34;5000703;28;11482;-66
2022/12/27 08:43:48;;;;;;;;;81.25;66.00;;;;;19.44;49.48;96091.94;4983368;28;10885;-65
2022/12/27 08:46:14;;;;;;;;;76.25;62.75;;;;;19.66;49.33;96100.03;4999149;28;10188;-65
2022/12/27 08:48:42;;;;;;;;;75.25;60.75;;;;;19.85;48.98;96089.63;5000097;28;8820;-64
2022/12/27 08:51:09;;;;;;;;;72.00;61.00;;;;;20.01;48.62;96087.09;4997834;28;8852;-64
2022/12/27 08:53:40;;;;;;;;;71.00;60.00;;;;;20.15;48.31;96093.72;4999353;28;8871;-65
2022/12/27 08:56:07;;;;;;;;;79.25;66.00;;;;;20.28;47.53;96089.19;4998574;28;8966;-65
2022/12/27 08:58:33;;;;;;;;;77.00;64.00;;;;;20.39;46.86;96094.63;4998065;28;10486;-66
2022/12/27 09:01:08;;;;;;;;;71.25;60.25;;;;;20.51;47.08;96094.09;5001837;28;10189;-67
2022/12/27 09:03:35;;;;;;;;;77.50;64.75;;;;;20.61;47.04;96102.69;5000679;28;8828;-68
2022/12/27 09:06:14;;;;;;;;;82.25;68.25;;;;;20.70;46.73;96102.97;4998277;28;9883;-68
2022/12/27 09:08:43;;;;;;;;;78.75;65.00;;;;;20.46;42.44;96107.59;5003584;28;8917;-72
2022/12/27 09:11:25;;;;;;;;;70.00;59.75;;;;;20.37;41.54;96108.13;5003962;28;10115;-70
2022/12/27 09:13:53;;;;;;;;;71.75;60.00;;;;;20.30;41.82;96106.19;4998895;28;9852;-69
2022/12/27 09:16:23;;;;;;;;;70.00;59.25;;;;;20.13;40.96;96112.72;5006164;28;10132;-68
2022/12/27 09:18:52;;;;;;;;;79.25;65.25;;;;;20.19;41.17;96122.94;5008052;28;8836;-68
2022/12/27 09:21:21;;;;;;;;;69.25;58.75;;;;;20.23;41.14;96126.44;5004541;28;9955;-70
2022/12/27 09:23:49;;;;;;;;;84.00;69.00;;;;;18.71;35.12;96126.69;5004557;28;9868;-72
2022/12/27 09:26:19;;;;;;;;;83.00;68.00;;;;;18.82;37.97;96132.16;5002798;28;10434;-72
2022/12/27 09:28:47;;;;;;;;;73.50;61.75;;;;;19.17;39.30;96133.19;5005291;28;12101;-82
2022/12/27 09:31:16;;;;;;;;;83.67;69.33;;;;;19.40;39.51;96132.66;5005366;28;9680;-72
2022/12/27 09:33:43;;;;;;;;;72.25;60.25;;;;;19.54;40.07;96130.97;5006145;28;9202;-70
2022/12/27 09:36:20;;;;;;;;;70.75;60.00;;;;;19.67;40.01;96132.03;4986287;28;9802;-72
2022/12/27 09:38:50;;;;;;;;;80.25;66.25;;;;;19.74;39.21;96137.56;5002731;28;9614;-73
2022/12/27 09:41:20;;;;;;;;;71.50;60.75;;;;;19.83;39.86;96139.06;4984481;28;11266;-75
2022/12/27 09:44:36;;;;;;;;;79.50;66.75;;;;;19.94;40.69;96139.75;5003858;28;10410;-71
2022/12/27 09:47:25;;;;;;;;;82.50;68.25;;;;;20.00;40.54;96140.91;5003468;28;10979;-71
2022/12/27 09:50:08;;;;;;;;;72.50;61.25;;;;;19.56;36.84;96151.50;5001850;28;11770;-67
2022/12/27 09:52:40;;;;;;;;;84.25;69.00;;;;;19.58;39.33;96160.19;5005413;28;8801;-68
2022/12/27 09:55:40;;;;;;;;;79.50;66.00;;;;;19.53;39.81;96157.88;5006078;28;8855;-74
2022/12/27 09:58:45;;;;;;;;;93.00;76.00;;;;;19.60;37.62;96162.53;4996710;28;9617;-75
2022/12/27 10:01:27;;;;;;;;;81.00;68.50;;;;;19.70;38.75;96164.44;4990896;28;12342;-69
2022/12/27 10:03:54;;;;;;;;;86.25;70.75;;;;;19.81;39.85;96158.81;5007180;28;11232;-69
2022/12/27 10:06:27;;;;;;;;;92.50;76.00;;;;;19.86;40.97;96163.97;5003257;28;10504;-68
2022/12/27 10:08:56;;;;;;;;;91.00;75.00;;;;;19.93;41.42;96163.91;5004537;28;11542;-68
2022/12/27 10:12:00;;;;;;;;;92.00;76.00;;;;;20.01;41.60;96166.59;5008819;28;12326;-68
2022/12/27 10:14:36;;;;;;;;;93.00;76.00;;;;;20.15;42.24;96157.38;5011087;28;12390;-77
2022/12/27 10:17:57;;;;;;;;;78.50;65.25;;;;;20.27;43.36;96161.63;5006827;28;11565;-65
2022/12/27 10:21:01;;;;;;;;;83.50;69.75;;;;;20.61;41.32;96164.41;4919029;29;9845;-66
2022/12/27 10:23:31;;;;;;;;;82.67;69.00;;;;;20.57;44.85;96166.44;4900464;28;9651;-61
2022/12/27 10:26:05;;;;;;;;;80.75;68.50;;;;;20.64;46.42;96160.81;4919275;29;9120;-62
2022/12/27 10:28:40;;;;;;;;;78.00;66.00;;;;;20.75;46.37;96163.50;4904678;28;10186;-62
2022/12/27 10:31:19;;;;;;;;;79.75;65.00;;;;;20.79;46.43;96158.72;4926198;29;8954;-62
2022/12/27 10:33:48;;;;;;;;;81.75;65.25;;;;;20.86;46.78;96150.31;4910205;29;9805;-62
2022/12/27 10:36:22;;;;;;;;;83.00;68.25;;;;;20.94;46.43;96150.22;4905823;28;9947;-62
2022/12/27 10:38:49;;;;;;;;;81.25;67.00;;;;;20.99;45.92;96156.09;4914897;29;8879;-62
2022/12/27 10:41:22;;;;;;;;;83.00;69.00;;;;;21.09;45.60;96153.59;4918122;29;8944;-68
2022/12/27 10:43:52;;;;;;;;;81.00;68.25;;;;;21.10;46.72;96150.38;4910856;29;9726;-62
2022/12/27 10:46:27;;;;;;;;;80.00;65.00;;;;;21.11;41.96;96153.97;4914729;28;9482;-64
2022/12/27 10:49:05;;;;;;;;;83.00;68.00;;;;;21.12;38.54;96148.00;4898193;29;10107;-64
2022/12/27 10:51:51;;;;;;;;;83.50;69.50;;;;;21.15;36.82;96138.06;4914315;29;9970;-62
2022/12/27 10:54:28;;;;;;;;;91.00;75.25;;;;;21.10;38.38;96141.31;4913303;28;9015;-64
2022/12/27 10:57:14;;;;;;;;;79.25;65.75;;;;;21.06;39.87;96133.03;4933668;28;11502;-63
2022/12/27 10:59:41;;;;;;;;;81.50;68.00;;;;;21.09;43.45;96139.72;5006414;28;10056;-62
2022/12/27 11:02:18;;;;;;;;;82.00;68.25;;;;;21.13;46.07;96137.69;5000720;28;8868;-64
2022/12/27 11:04:57;;;;;;;;;76.25;64.00;;;;;21.18;45.63;96134.44;5004221;28;8928;-63
2022/12/27 11:07:30;;;;;;;;;81.25;67.50;;;;;21.29;46.64;96132.28;5003158;28;9444;-64
2022/12/27 11:10:07;;;;;;;;;81.25;68.25;;;;;21.33;46.69;96124.72;5006561;28;8852;-64
2022/12/27 11:12:35;;;;;;;;;80.00;67.50;;;;;21.42;46.91;96115.09;5003867;28;8836;-63
2022/12/27 11:15:20;;;;;;;;;81.00;68.00;;;;;21.54;47.14;96122.81;4999225;28;8868;-63
2022/12/27 11:17:57;;;;;;;;;91.00;75.00;;;;;21.58;47.16;96108.94;5004469;28;8963;-63
2022/12/27 11:20:28;;;;;;;;;79.00;66.00;;;;;21.65;46.74;96108.81;5005470;28;11542;-70
2022/12/27 11:23:08;;;;;;;;;84.75;71.00;;;;;21.28;37.69;96107.75;5005354;28;10658;-67
2022/12/27 11:26:05;;;;;;;;;90.25;72.00;;;;;21.22;38.11;96093.56;5006028;28;8860;-63
2022/12/27 11:28:37;;;;;;;;;80.00;66.25;;;;;21.18;39.08;96093.63;4989444;28;8934;-63
2022/12/27 11:31:13;;;;;;;;;84.25;68.00;;;;;21.22;40.50;96092.81;5005709;28;9628;-64
2022/12/27 11:33:52;;;;;;;;;93.00;75.50;;;;;21.27;41.84;96084.00;5001842;28;9716;-63
2022/12/27 11:36:39;;;;;;;;;82.00;68.25;;;;;21.32;42.57;96080.78;5005424;28;11474;-66
2022/12/27 11:39:27;;;;;;;;;90.25;75.00;;;;;21.40;43.24;96076.69;5001853;28;9783;-63
2022/12/27 11:41:58;;;;;;;;;91.00;75.00;;;;;21.38;44.31;96070.75;5006287;28;11485;-63
2022/12/27 11:44:37;;;;;;;;;82.00;67.00;;;;;21.30;44.17;96067.31;5004257;28;11652;-65
2022/12/27 11:47:13;;;;;;;;;77.75;63.50;;;;;21.37;43.97;96069.19;4982921;28;8986;-62
2022/12/27 11:50:03;;;;;;;;;71.00;59.25;;;;;21.39;43.83;96072.34;4998964;28;9792;-63
2022/12/27 11:53:11;;;;;;;;;75.25;64.00;;;;;21.50;44.35;96063.84;4999950;28;9089;-62
2022/12/27 11:56:03;;;;;;;;;74.50;63.25;;;;;21.62;44.87;96056.94;4997329;28;8864;-63
2022/12/27 11:58:47;;;;;;;;;77.25;65.25;;;;;21.58;44.62;96048.66;4978510;28;8871;-65
2022/12/27 12:01:26;;;;;;;;;77.25;65.25;;;;;21.59;44.62;96046.66;5000200;28;9710;-62
2022/12/27 12:04:33;;;;;;;;;78.50;66.00;;;;;21.53;44.95;96038.03;5000749;28;10126;-64
2022/12/27 12:07:00;;;;;;;;;75.75;63.75;;;;;21.57;44.92;96035.19;4995132;28;8872;-65
2022/12/27 12:10:09;;;;;;;;;72.50;60.25;;;;;21.61;45.59;96030.38;4996626;28;9568;-62
2022/12/27 12:13:07;;;;;;;;;76.50;64.75;;;;;21.79;46.77;96025.31;4998465;28;8856;-62
2022/12/27 12:16:04;;;;;;;;;78.00;65.25;;;;;21.87;46.43;96028.75;4997468;28;11697;-61
2022/12/27 12:18:55;;;;;;;;;79.75;66.50;;;;;21.69;46.05;96022.72;4999346;28;9748;-68
2022/12/27 12:21:40;;;;;;;;;75.75;63.50;;;;;21.63;45.28;96009.31;4994315;28;8883;-65
2022/12/27 12:24:31;;;;;;;;;67.75;58.50;;;;;21.61;44.91;96005.41;5001855;28;8856;-65
2022/12/27 12:27:27;;;;;;;;;77.00;65.00;;;;;21.54;45.19;95997.97;5001625;28;8909;-65
2022/12/27 12:30:12;;;;;;;;;71.00;60.50;;;;;21.58;45.73;95997.94;5000055;28;9860;-64
2022/12/27 12:33:05;;;;;;;;;72.00;59.75;;;;;21.53;46.49;95990.88;4997917;28;10626;-62
2022/12/27 12:35:38;;;;;;;;;79.25;65.25;;;;;21.59;47.57;95985.63;4989840;28;8919;-71
2022/12/27 12:38:19;;;;;;;;;78.00;65.25;;;;;21.52;46.92;95991.28;5000782;28;10043;-66
2022/12/27 12:41:05;;;;;;;;;90.00;75.00;;;;;21.47;46.89;95981.44;4992512;28;10083;-66
2022/12/27 12:43:34;;;;;;;;;78.00;65.50;;;;;21.44;46.74;95976.75;4996218;28;11304;-67
2022/12/27 12:46:18;;;;;;;;;72.00;60.25;;;;;21.41;46.92;95966.50;5004802;28;9564;-66
2022/12/27 12:49:06;;;;;;;;;78.75;64.75;;;;;21.39;47.07;95971.69;5001799;28;8920;-65
2022/12/27 12:51:51;;;;;;;;;80.75;67.25;;;;;21.33;47.33;95966.63;5000955;28;9803;-65
2022/12/27 12:54:40;;;;;;;;;77.50;64.75;;;;;21.32;47.69;95967.06;5000772;28;8891;-66
2022/12/27 12:57:28;;;;;;;;;70.25;59.25;;;;;21.31;47.83;95969.03;4999948;28;9853;-66
2022/12/27 12:59:58;;;;;;;;;104.25;95.25;;;;;21.28;47.66;95963.53;5003671;28;8844;-66
2022/12/27 13:03:07;;;;;;;;;105.00;89.33;;;;;21.31;47.36;95955.16;5000695;28;10922;-68
2022/12/27 13:05:56;;;;;;;;;89.25;72.25;;;;;21.25;45.66;95953.28;4992230;28;9499;-67
2022/12/27 13:08:37;;;;;;;;;95.25;78.00;;;;;21.15;44.63;95955.84;5003903;28;8856;-67
2022/12/27 13:11:07;;;;;;;;;84.50;70.00;;;;;21.12;43.67;95953.09;4998575;28;11474;-67
2022/12/27 13:13:49;;;;;;;;;76.25;63.00;;;;;21.12;45.52;95953.91;5001611;28;10964;-67
2022/12/27 13:16:31;;;;;;;;;86.75;70.50;;;;;21.06;47.23;95944.50;5004662;28;8843;-66
2022/12/27 13:19:36;;;;;;;;;79.50;65.50;;;;;21.06;47.39;95940.94;5003022;28;10298;-68
2022/12/27 13:22:55;;;;;;;;;84.25;69.00;;;;;21.13;47.77;95936.06;5002626;28;9989;-67
2022/12/27 13:25:37;;;;;;;;;75.50;62.50;;;;;21.13;47.85;95927.75;4986219;28;10124;-66
2022/12/27 13:28:38;;;;;;;;;86.50;70.75;;;;;21.10;47.73;95925.81;5004202;28;9899;-65
2022/12/27 13:31:14;;;;;;;;;87.00;69.00;;;;;21.06;47.93;95924.31;5005061;28;9297;-64
2022/12/27 13:33:56;;;;;;;;;78.50;63.50;;;;;21.03;48.11;95921.16;5001694;28;9382;-66
2022/12/27 13:36:55;;;;;;;;;80.33;66.00;;;;;20.99;48.10;95917.69;5000008;28;9382;-66
2022/12/27 13:39:48;;;;;;;;;83.75;70.00;;;;;20.92;48.22;95912.25;5003114;28;11449;-67